Flight Track Log - Related Links

Times and Time Zones

All times are in EDT time to prevent confusion due to time zone crossing. See the AAY800 flight status page for this flight to view local times or setup timezone preferences in your user account.

Time Position Orientation Groundspeed Altitude Reporting Facility
EDT Latitude Longitude Course Direction KTS MPH feet Rate Location/Type
Sat 09:21:53 AM 27.9167 -82.6833 360° North 168 193 700  Level Tampa TRACON
Sat 09:22:54 AM 27.9667 -82.6833 360° North 201 231 2,200 2,031 Climbing Tampa TRACON
Sat 09:24:00 AM 28.0500 -82.6667 10° North 275 316 5,000 2,596 Climbing Tampa TRACON
Sat 09:26:22 AM 28.2167 -82.6900 353° North 277 319 11,200 2,287 Climbing Jacksonville Center
Sat 09:27:22 AM 28.3042 -82.6969 356° North 289 333 12,700 1,950 Climbing Jacksonville Center
Sat 09:28:22 AM 28.4022 -82.7086 354° North 323 372 15,100 1,967 Climbing Jacksonville Center
Sat 09:34:20 AM 29.0532 -82.7812 354° North 412 474 26,400 1,838 Climbing FlightAware ADS-B
Sat 09:34:57 AM 29.1226 -82.7895 354° North 418 481 27,200 1,259 Climbing FlightAware ADS-B
Sat 09:35:41 AM 29.2086 -82.7997 354° North 423 487 28,100 1,209 Climbing FlightAware ADS-B
Sat 09:39:35 AM 29.6752 -82.8448 356° North 431 496 32,800 1,179 Climbing FlightAware ADS-B
Sat 09:40:21 AM 29.7669 -82.8522 356° North 429 494 33,600 736 Climbing FlightAware ADS-B
Sat 09:41:21 AM 29.8853 -82.8600 357° North 424 488 34,100 667 Climbing FlightAware ADS-B
Sat 09:42:00 AM 29.9274 -82.8617 359° North 427 491 34,700 947 Climbing FlightAware ADS-B
Sat 09:42:37 AM 30.0365 -82.8398 10° North 436 502 35,300 894 Climbing FlightAware ADS-B
Sat 09:44:21 AM 30.2317 -82.7978 11° North 431 496 36,800 723 Climbing FlightAware ADS-B
Sat 09:44:58 AM 30.3117 -82.7802 11° North 425 489 37,000 148 Climbing FlightAware ADS-B
Sat 09:45:42 AM 30.3971 -82.7614 11° North 419 482 37,000  Level FlightAware ADS-B
Sat 09:46:21 AM 30.4719 -82.7449 11° North 420 483 37,000  Level FlightAware ADS-B
Sat 09:47:20 AM 30.5842 -82.7202 11° North 420 483 37,000  Level FlightAware ADS-B
Sat 09:47:51 AM 30.6366 -82.7086 11° North 421 484 37,000  Level FlightAware ADS-B
Sat 09:48:22 AM 30.7041 -82.6938 11° North 421 484 37,000  Level FlightAware ADS-B
Sat 09:48:54 AM 30.7584 -82.6818 11° North 423 487 37,000  Level FlightAware ADS-B
Sat 09:50:22 AM 30.9281 -82.6456 11° North 421 484 37,000  Level Jacksonville Center
Sat 09:51:22 AM 31.0431 -82.6283 North 416 479 37,000  Level Jacksonville Center
Sat 09:52:22 AM 31.1578 -82.6111 North 410 472 37,000  Level Jacksonville Center
Sat 09:53:22 AM 31.2725 -82.5911 North 410 472 37,000  Level Jacksonville Center
Sat 09:54:22 AM 31.3872 -82.5689 North 410 472 37,000  Level Jacksonville Center
Sat 09:56:52 AM 31.6642 -82.5236 North 414 476 37,000  Level Atlanta Center
Sat 09:57:52 AM 31.7683 -82.5072 North 414 476 37,000  Level Atlanta Center
Sat 09:58:52 AM 31.9078 -82.4806 North 414 476 37,000  Level Atlanta Center
Sat 09:59:52 AM 32.0203 -82.4614 North 414 476 37,000  Level Atlanta Center
Sat 10:00:52 AM 32.1369 -82.4419 North 414 476 37,000  Level Atlanta Center
Sat 10:01:52 AM 32.2286 -82.4256 North 414 476 37,000  Level Atlanta Center
Sat 10:02:52 AM 32.3494 -82.4039 North 414 476 37,000  Level Atlanta Center
Sat 10:03:52 AM 32.4661 -82.3819 North 407 468 37,000  Level Atlanta Center
Sat 10:04:52 AM 32.5908 -82.3600 North 407 468 37,000  Level Atlanta Center
Sat 10:05:52 AM 32.7056 -82.3428 North 407 468 37,000  Level Atlanta Center
Sat 10:06:52 AM 32.8181 -82.3233 North 407 468 37,000  Level Atlanta Center
Sat 10:07:52 AM 32.9325 -82.3039 North 407 468 37,000  Level Atlanta Center
Sat 10:08:52 AM 33.0450 -82.2844 North 412 474 37,000  Level Atlanta Center
Sat 10:09:52 AM 33.1572 -82.2647 North 407 468 37,000  Level Atlanta Center
Sat 10:10:52 AM 33.2761 -82.2425 North 412 474 37,000  Level Atlanta Center
Sat 10:16:39 AM 33.9492 -82.1238 North 419 482 37,000  Level FlightAware ADS-B
Sat 10:17:46 AM 34.0778 -82.1009 North 419 482 37,000  Level FlightAware ADS-B
Sat 10:21:08 AM 34.4613 -82.0317 North 408 470 37,000  Level FlightAware ADS-B
Sat 10:22:23 AM 34.6859 -81.9910 North 404 465 37,000  Level FlightAware ADS-B (KDZJ)
Sat 10:23:03 AM 34.7595 -81.9776 North 406 467 37,000  Level FlightAware ADS-B (KDZJ)
Sat 10:24:03 AM 34.7867 -81.9726 North 406 467 37,000  Level FlightAware ADS-B
Sat 10:24:39 AM 34.8547 -81.9601 North 406 467 37,000  Level FlightAware ADS-B
Sat 10:25:25 AM 35.0235 -81.9318 North 389 448 37,000  Level FlightAware ADS-B (KDZJ)
Sat 10:25:53 AM 35.0735 -81.9323 356° North 388 447 37,000  Level FlightAware ADS-B (KDZJ)
Sat 10:27:24 AM 35.2340 -81.9516 354° North 375 432 37,000  Level FlightAware ADS-B (KDZJ)
Sat 10:28:01 AM 35.3005 -81.9597 354° North 375 432 37,000  Level FlightAware ADS-B (KDZJ)
Sat 10:30:39 AM 35.5782 -81.9936 354° North 373 429 37,000  Level FlightAware ADS-B (KDZJ)
Sat 10:31:55 AM 35.7115 -82.0099 354° North 371 427 37,000  Level FlightAware ADS-B (KDZJ)
Sat 10:32:49 AM 35.7211 -82.0111 354° North 382 440 37,000  Level Indianapolis Center
Sat 10:33:50 AM 35.8247 -82.0250 354° North 373 429 37,000  Level Indianapolis Center
Sat 10:34:52 AM 35.9397 -82.0433 353° North 387 445 37,000  Level Atlanta Center
Sat 10:35:52 AM 36.0464 -82.0536 356° North 387 445 37,000  Level Atlanta Center
Sat 10:36:52 AM 36.1589 -82.0456 North 387 445 37,000  Level Atlanta Center
Sat 10:37:52 AM 36.2608 -82.0356 North 382 440 37,000  Level Atlanta Center
Sat 10:38:52 AM 36.3669 -82.0225 North 382 440 37,000  Level Atlanta Center
Sat 10:39:52 AM 36.4756 -82.0172 North 387 445 37,000  Level Atlanta Center
Sat 10:42:04 AM 36.6939 -82.0508 353° North 378 435 37,000  Level Indianapolis Center
Sat 10:43:06 AM 36.7986 -82.0656 354° North 378 435 37,000  Level Indianapolis Center
Sat 10:44:08 AM 36.9219 -82.0836 353° North 379 436 37,000  Level Indianapolis Center
Sat 10:45:09 AM 37.0264 -82.1003 353° North 379 436 37,000  Level Indianapolis Center
Sat 10:46:11 AM 37.1306 -82.1153 353° North 379 436 37,000  Level Indianapolis Center
Sat 10:47:13 AM 37.2336 -82.1303 353° North 378 435 37,000  Level Indianapolis Center
Sat 10:48:15 AM 37.3358 -82.1461 353° North 375 432 37,000  Level Indianapolis Center
Sat 10:49:16 AM 37.4375 -82.1614 353° North 371 427 37,000  Level Indianapolis Center
Sat 10:50:18 AM 37.5578 -82.1803 353° North 371 427 37,000  Level Indianapolis Center
Sat 10:51:20 AM 37.6633 -82.1961 353° North 376 433 37,000  Level Indianapolis Center
Sat 10:52:22 AM 37.7683 -82.2119 353° North 377 434 37,000  Level Indianapolis Center
Sat 10:53:23 AM 37.8731 -82.2283 353° North 377 434 37,000  Level Indianapolis Center
Sat 10:54:25 AM 37.9775 -82.2444 353° North 377 434 37,000  Level Indianapolis Center
Sat 10:55:27 AM 38.0836 -82.2600 353° North 378 435 37,000  Level Indianapolis Center
Sat 10:56:29 AM 38.2019 -82.2772 353° North 380 437 37,000  Level Indianapolis Center
Sat 11:02:16 AM 38.8323 -82.3770 353° North 392 451 37,000 -31 Level FlightAware ADS-B
Sat 11:03:02 AM 38.9138 -82.3898 353° North 388 447 36,800 -585 Descending FlightAware ADS-B
Sat 11:03:38 AM 38.9766 -82.4000 353° North 390 449 36,200 -943 Descending FlightAware ADS-B
Sat 11:04:12 AM 39.0374 -82.4097 353° North 382 440 35,700 -909 Descending FlightAware ADS-B
Sat 11:04:44 AM 39.0895 -82.4176 353° North 377 434 35,200 -943 Descending FlightAware ADS-B
Sat 11:05:22 AM 39.1584 -82.4285 353° North 370 426 34,600 -943 Descending FlightAware ADS-B
Sat 11:05:54 AM 39.2136 -82.4373 353° North 367 422 34,100 -871 Descending FlightAware ADS-B
Sat 11:06:24 AM 39.2630 -82.4454 353° North 370 426 33,700 -676 Descending FlightAware ADS-B
Sat 11:07:05 AM 39.3330 -82.4568 353° North 376 433 33,300 -560 Descending FlightAware ADS-B
Sat 11:07:39 AM 39.3945 -82.4667 353° North 379 436 33,000 -480 Descending FlightAware ADS-B
Sat 11:08:20 AM 39.4562 -82.4766 353° North 381 438 32,700 -493 Descending FlightAware ADS-B
Sat 11:08:52 AM 39.5208 -82.4870 353° North 379 436 32,400 -522 Descending FlightAware ADS-B
Sat 11:09:29 AM 39.5850 -82.4971 353° North 375 432 32,100 -833 Descending FlightAware ADS-B
Sat 11:10:04 AM 39.6357 -82.5050 353° North 371 427 31,400 -1,527 Descending FlightAware ADS-B
Sat 11:11:19 AM 39.7768 -82.5281 353° North 383 441 29,300 -1,636 Descending FlightAware ADS-B
Sat 11:11:54 AM 39.8317 -82.5367 353° North 377 434 28,400 -1,546 Descending Indianapolis Center
Sat 11:12:56 AM 39.9375 -82.5531 353° North 385 443 26,800 -1,597 Descending Indianapolis Center
Sat 11:13:58 AM 40.0333 -82.5700 352° North 360 414 25,100 -1,561 Descending Indianapolis Center
Sat 11:14:59 AM 40.1222 -82.5864 352° North 335 386 23,600 -1,463 Descending Indianapolis Center
Sat 11:16:01 AM 40.2008 -82.6278 338° Northwest 311 358 22,100 -1,512 Descending Indianapolis Center
Sat 11:17:02 AM 40.2786 -82.6894 329° Northwest 306 352 20,500 -1,024 Descending Indianapolis Center
Sat 11:18:04 AM 40.3500 -82.7467 329° Northwest 303 349 20,000 -242 Descending Indianapolis Center
Sat 11:19:06 AM 40.4314 -82.8114 329° Northwest 305 351 20,000  Level Indianapolis Center
Sat 11:20:07 AM 40.5072 -82.8711 329° Northwest 311 358 20,000  Level Indianapolis Center
Sat 11:21:09 AM 40.5794 -82.9297 328° Northwest 317 365 20,000 -48 Level Indianapolis Center
Sat 11:22:11 AM 40.6697 -83.0031 328° Northwest 319 367 19,900 -293 Descending Indianapolis Center
Sat 11:23:12 AM 40.7478 -83.0644 329° Northwest 320 368 19,400 -537 Descending Indianapolis Center
Sat 11:24:14 AM 40.8253 -83.1267 329° Northwest 321 369 18,800 -1,210 Descending Indianapolis Center
Sat 11:25:16 AM 40.9008 -83.1883 328° Northwest 320 368 16,900 -1,902 Descending Indianapolis Center
Sat 11:26:17 AM 40.9758 -83.2492 329° Northwest 317 365 14,900 -1,902 Descending Indianapolis Center
Sat 11:27:19 AM 41.0483 -83.3078 329° Northwest 307 353 13,000 -1,790 Descending Indianapolis Center
Sat 11:28:21 AM 41.1178 -83.3647 328° Northwest 295 339 11,200 -1,220 Descending Indianapolis Center
Sat 11:29:22 AM 41.1906 -83.3897 346° North 272 313 10,500 -1,073 Descending Indianapolis Center
Sat 11:30:24 AM 41.2511 -83.4322 332° Northwest 247 284 9,000 -1,489 Descending Indianapolis Center
Sat 11:31:35 AM 41.3222 -83.4828 332° Northwest 237 273 7,200 -1,500 Descending Cleveland Center
Sat 11:32:36 AM 41.3803 -83.5222 333° Northwest 236 272 5,700 -1,475 Descending Cleveland Center
Sat 11:33:37 AM 41.4383 -83.5625 333° Northwest 236 272 4,200 -1,279 Descending Cleveland Center
Sat 11:34:38 AM 41.4944 -83.6019 332° Northwest 234 269 3,100 -878 Descending Cleveland Center
Sat 11:35:40 AM 41.5458 -83.6403 331° Northwest 224 258 2,400 -341 Descending Cleveland Center
Sat 11:36:41 AM 41.5875 -83.6681 333° Northwest 194 223 2,400 -98 Level Cleveland Center
Sat 11:37:42 AM 41.6164 -83.7022 319° Northwest 169 194 2,200 -393 Descending Cleveland Center
Sat 11:38:43 AM 41.6058 -83.7544 255° West 150 173 1,600 -590 Descending Cleveland Center

Login

Don't have an account? Register now (free) for customized features, flight alerts, and more!